This is the latest recevied weather packets stored in our database for station/object K7FED. If no packets are shown the sender has not sent any weather packets the latest 1 day(s).
| Time | Temp. | Humidity | Pressure | Rain* | Wind** | Luminosity | Snow |
|---|---|---|---|---|---|---|---|
| 1778090660 | 20° C | 62% | 1018.4 hPa | 0 mm | - | 162 W/m² | - |
| 1778089150 | 19.44° C | 63% | 1018.6 hPa | 0 mm | - | 60 W/m² | - |
| 1778087348 | 18.33° C | 67% | 1018.5 hPa | 0 mm | - | 135 W/m² | - |
| 1778084903 | 17.22° C | 69% | 1018.6 hPa | 0 mm | - | 80 W/m² | - |
| 1778084304 | 16.67° C | 71% | 1018.6 hPa | 0 mm | - | 96 W/m² | - |
| 1778084004 | 16.67° C | 72% | 1018.6 hPa | 0 mm | - | 100 W/m² | - |
| 1778081602 | 15° C | 77% | 1018.7 hPa | 0 mm | - | 77 W/m² | - |
| 1778080703 | 14.44° C | 79% | 1018.7 hPa | 0 mm | - | 65 W/m² | - |
| 1778079488 | 14.44° C | 81% | 1018.7 hPa | 0 mm | - | 52 W/m² | - |
| 1778079188 | 13.89° C | 82% | 1018.7 hPa | 0 mm | - | 48 W/m² | - |
| 1778078289 | 13.89° C | 82% | 1018.8 hPa | 0 mm | - | 38 W/m² | - |
| 1778077688 | 13.33° C | 83% | 1018.6 hPa | 0 mm | - | 33 W/m² | - |
| 1778077089 | 13.33° C | 84% | 1018.6 hPa | 0 mm | - | 26 W/m² | - |
| 1778075874 | 12.78° C | 87% | 1018.4 hPa | 0 mm | - | 17 W/m² | - |
| 1778075574 | 12.78° C | 87% | 1018.3 hPa | 0 mm | - | 15 W/m² | - |
| 1778074360 | 12.78° C | 88% | 1018.2 hPa | 0 mm | - | 7 W/m² | - |
| 1778073460 | 12.78° C | 88% | 1018.1 hPa | 0 mm | - | 3 W/m² | - |
| 1778072560 | 12.78° C | 88% | 1018 hPa | 0 mm | - | 0 W/m² | - |
| 1778071060 | 13.33° C | 84% | 1017.9 hPa | 0 mm | - | 0 W/m² | - |
| 1778070760 | 13.33° C | 84% | 1017.9 hPa | 0 mm | - | 0 W/m² | - |
| 1778070161 | 13.33° C | 84% | 1017.9 hPa | 0 mm | - | 0 W/m² | - |
| 1778069547 | 13.33° C | 84% | 1017.8 hPa | 0 mm | - | 0 W/m² | - |
| 1778069246 | 13.33° C | 84% | 1017.7 hPa | 0 mm | - | 0 W/m² | - |
| 1778068647 | 13.33° C | 85% | 1017.7 hPa | 0 mm | - | 0 W/m² | - |
| 1778068047 | 12.78° C | 86% | 1017.6 hPa | 0 mm | - | 0 W/m² | - |
* Rain latest hour (hover to see other rain measurements)
** Current wind speed in m/s (hover to see current wind gust speed)